sensor_id;sensor_type;location;lat;lon;timestamp;P1;durP1;ratioP1;P2;durP2;ratioP2
59788;SDS011;47353;51.614;5.530;2023-04-25T00:00:46;15.20;;;4.80;;
59788;SDS011;47353;51.614;5.530;2023-04-25T00:03:11;17.15;;;4.70;;
59788;SDS011;47353;51.614;5.530;2023-04-25T00:05:37;13.60;;;4.80;;
59788;SDS011;47353;51.614;5.530;2023-04-25T00:08:03;13.95;;;4.70;;
59788;SDS011;47353;51.614;5.530;2023-04-25T00:10:29;14.77;;;4.93;;
59788;SDS011;47353;51.614;5.530;2023-04-25T00:12:54;14.18;;;4.50;;
59788;SDS011;47353;51.614;5.530;2023-04-25T00:15:19;15.27;;;4.80;;
59788;SDS011;47353;51.614;5.530;2023-04-25T00:17:45;19.35;;;5.57;;
59788;SDS011;47353;51.614;5.530;2023-04-25T00:20:11;14.02;;;5.45;;
59788;SDS011;47353;51.614;5.530;2023-04-25T00:22:37;14.20;;;5.55;;
59788;SDS011;47353;51.614;5.530;2023-04-25T00:25:05;19.88;;;5.80;;
59788;SDS011;47353;51.614;5.530;2023-04-25T00:27:31;18.08;;;5.78;;
59788;SDS011;47353;51.614;5.530;2023-04-25T00:29:57;28.40;;;9.10;;
59788;SDS011;47353;51.614;5.530;2023-04-25T00:32:22;22.83;;;8.25;;
59788;SDS011;47353;51.614;5.530;2023-04-25T00:34:48;19.20;;;6.43;;
59788;SDS011;47353;51.614;5.530;2023-04-25T00:37:14;18.92;;;6.13;;
59788;SDS011;47353;51.614;5.530;2023-04-25T00:39:40;19.60;;;5.53;;
59788;SDS011;47353;51.614;5.530;2023-04-25T00:42:05;17.05;;;5.35;;
59788;SDS011;47353;51.614;5.530;2023-04-25T00:44:30;20.27;;;5.35;;
59788;SDS011;47353;51.614;5.530;2023-04-25T00:46:57;13.95;;;5.20;;
59788;SDS011;47353;51.614;5.530;2023-04-25T00:49:22;18.17;;;5.22;;
59788;SDS011;47353;51.614;5.530;2023-04-25T00:51:48;14.93;;;5.00;;
59788;SDS011;47353;51.614;5.530;2023-04-25T00:54:14;21.75;;;5.90;;
59788;SDS011;47353;51.614;5.530;2023-04-25T00:56:40;16.20;;;5.13;;
59788;SDS011;47353;51.614;5.530;2023-04-25T00:59:06;20.52;;;5.55;;
59788;SDS011;47353;51.614;5.530;2023-04-25T01:01:32;14.80;;;5.30;;
59788;SDS011;47353;51.614;5.530;2023-04-25T01:03:58;17.65;;;5.03;;
59788;SDS011;47353;51.614;5.530;2023-04-25T01:06:25;14.70;;;5.70;;
59788;SDS011;47353;51.614;5.530;2023-04-25T01:08:51;18.38;;;5.78;;
59788;SDS011;47353;51.614;5.530;2023-04-25T01:11:16;16.17;;;5.07;;
59788;SDS011;47353;51.614;5.530;2023-04-25T01:13:42;23.67;;;6.57;;
59788;SDS011;47353;51.614;5.530;2023-04-25T01:16:07;23.92;;;6.82;;
59788;SDS011;47353;51.614;5.530;2023-04-25T01:18:33;21.35;;;7.57;;
59788;SDS011;47353;51.614;5.530;2023-04-25T01:21:08;20.25;;;6.25;;
59788;SDS011;47353;51.614;5.530;2023-04-25T01:23:35;19.08;;;6.32;;
59788;SDS011;47353;51.614;5.530;2023-04-25T01:26:00;26.23;;;6.28;;
59788;SDS011;47353;51.614;5.530;2023-04-25T01:28:27;19.08;;;5.70;;
59788;SDS011;47353;51.614;5.530;2023-04-25T01:30:52;16.48;;;6.72;;
59788;SDS011;47353;51.614;5.530;2023-04-25T01:33:19;18.55;;;5.97;;
59788;SDS011;47353;51.614;5.530;2023-04-25T01:35:46;19.90;;;6.68;;
59788;SDS011;47353;51.614;5.530;2023-04-25T01:38:12;20.95;;;6.50;;
59788;SDS011;47353;51.614;5.530;2023-04-25T01:40:38;23.08;;;6.13;;
59788;SDS011;47353;51.614;5.530;2023-04-25T01:43:06;21.75;;;6.50;;
59788;SDS011;47353;51.614;5.530;2023-04-25T01:45:33;19.95;;;6.25;;
59788;SDS011;47353;51.614;5.530;2023-04-25T01:47:59;21.63;;;5.88;;
59788;SDS011;47353;51.614;5.530;2023-04-25T01:50:24;18.55;;;6.00;;
59788;SDS011;47353;51.614;5.530;2023-04-25T01:52:50;17.25;;;5.65;;
59788;SDS011;47353;51.614;5.530;2023-04-25T01:55:15;17.42;;;5.70;;
59788;SDS011;47353;51.614;5.530;2023-04-25T01:57:41;19.10;;;5.75;;
59788;SDS011;47353;51.614;5.530;2023-04-25T02:00:06;20.50;;;5.68;;
59788;SDS011;47353;51.614;5.530;2023-04-25T02:02:34;17.33;;;5.72;;
59788;SDS011;47353;51.614;5.530;2023-04-25T02:04:59;22.77;;;6.38;;
59788;SDS011;47353;51.614;5.530;2023-04-25T02:07:25;18.60;;;5.40;;
59788;SDS011;47353;51.614;5.530;2023-04-25T02:09:51;20.02;;;6.22;;
59788;SDS011;47353;51.614;5.530;2023-04-25T02:12:16;17.58;;;5.53;;
59788;SDS011;47353;51.614;5.530;2023-04-25T02:14:42;23.13;;;5.90;;
59788;SDS011;47353;51.614;5.530;2023-04-25T02:17:07;21.80;;;6.20;;
59788;SDS011;47353;51.614;5.530;2023-04-25T02:19:33;15.32;;;5.75;;
59788;SDS011;47353;51.614;5.530;2023-04-25T02:21:58;20.52;;;6.53;;
59788;SDS011;47353;51.614;5.530;2023-04-25T02:24:24;18.70;;;6.15;;
59788;SDS011;47353;51.614;5.530;2023-04-25T02:26:49;22.65;;;5.93;;
59788;SDS011;47353;51.614;5.530;2023-04-25T02:29:15;18.15;;;6.00;;
59788;SDS011;47353;51.614;5.530;2023-04-25T02:31:41;20.77;;;5.85;;
59788;SDS011;47353;51.614;5.530;2023-04-25T02:34:07;20.25;;;5.47;;
59788;SDS011;47353;51.614;5.530;2023-04-25T02:36:32;20.73;;;5.82;;
59788;SDS011;47353;51.614;5.530;2023-04-25T02:39:00;18.33;;;5.60;;
59788;SDS011;47353;51.614;5.530;2023-04-25T02:41:26;16.85;;;5.65;;
59788;SDS011;47353;51.614;5.530;2023-04-25T02:43:52;23.02;;;6.18;;
59788;SDS011;47353;51.614;5.530;2023-04-25T02:46:17;26.00;;;6.13;;
59788;SDS011;47353;51.614;5.530;2023-04-25T02:48:43;16.15;;;5.90;;
59788;SDS011;47353;51.614;5.530;2023-04-25T02:51:08;17.77;;;5.50;;
59788;SDS011;47353;51.614;5.530;2023-04-25T02:53:34;26.05;;;6.47;;
59788;SDS011;47353;51.614;5.530;2023-04-25T02:55:59;20.33;;;6.63;;
59788;SDS011;47353;51.614;5.530;2023-04-25T02:58:25;19.25;;;6.40;;
59788;SDS011;47353;51.614;5.530;2023-04-25T03:00:50;26.00;;;6.88;;
59788;SDS011;47353;51.614;5.530;2023-04-25T03:03:15;23.17;;;5.50;;
59788;SDS011;47353;51.614;5.530;2023-04-25T03:05:43;18.95;;;5.95;;
59788;SDS011;47353;51.614;5.530;2023-04-25T03:08:08;23.17;;;5.75;;
59788;SDS011;47353;51.614;5.530;2023-04-25T03:10:34;15.82;;;5.88;;
59788;SDS011;47353;51.614;5.530;2023-04-25T03:12:59;23.25;;;6.90;;
59788;SDS011;47353;51.614;5.530;2023-04-25T03:15:25;21.33;;;6.13;;
59788;SDS011;47353;51.614;5.530;2023-04-25T03:17:51;26.60;;;6.25;;
59788;SDS011;47353;51.614;5.530;2023-04-25T03:20:17;20.77;;;6.10;;
59788;SDS011;47353;51.614;5.530;2023-04-25T03:22:42;20.08;;;5.57;;
59788;SDS011;47353;51.614;5.530;2023-04-25T03:25:07;18.13;;;5.53;;
59788;SDS011;47353;51.614;5.530;2023-04-25T03:27:33;22.42;;;6.28;;
59788;SDS011;47353;51.614;5.530;2023-04-25T03:29:58;27.40;;;6.93;;
59788;SDS011;47353;51.614;5.530;2023-04-25T03:32:24;23.60;;;6.22;;
59788;SDS011;47353;51.614;5.530;2023-04-25T03:34:49;21.00;;;6.03;;
59788;SDS011;47353;51.614;5.530;2023-04-25T03:37:15;20.70;;;5.70;;
59788;SDS011;47353;51.614;5.530;2023-04-25T03:39:41;27.17;;;7.35;;
59788;SDS011;47353;51.614;5.530;2023-04-25T03:42:06;19.60;;;6.20;;
59788;SDS011;47353;51.614;5.530;2023-04-25T03:44:32;25.30;;;6.55;;
59788;SDS011;47353;51.614;5.530;2023-04-25T03:46:57;22.95;;;6.40;;
59788;SDS011;47353;51.614;5.530;2023-04-25T03:49:24;22.50;;;6.38;;
59788;SDS011;47353;51.614;5.530;2023-04-25T03:51:50;30.25;;;6.78;;
59788;SDS011;47353;51.614;5.530;2023-04-25T03:54:15;18.63;;;6.40;;
59788;SDS011;47353;51.614;5.530;2023-04-25T03:56:40;24.55;;;5.88;;
59788;SDS011;47353;51.614;5.530;2023-04-25T03:59:06;18.83;;;6.10;;
59788;SDS011;47353;51.614;5.530;2023-04-25T04:01:31;23.27;;;5.65;;
59788;SDS011;47353;51.614;5.530;2023-04-25T04:03:56;17.73;;;6.03;;
59788;SDS011;47353;51.614;5.530;2023-04-25T04:06:22;28.45;;;6.13;;
59788;SDS011;47353;51.614;5.530;2023-04-25T04:08:47;17.92;;;5.65;;
59788;SDS011;47353;51.614;5.530;2023-04-25T04:11:13;20.40;;;6.53;;
59788;SDS011;47353;51.614;5.530;2023-04-25T04:13:38;26.77;;;6.32;;
59788;SDS011;47353;51.614;5.530;2023-04-25T04:16:03;23.25;;;6.93;;
59788;SDS011;47353;51.614;5.530;2023-04-25T04:18:29;23.77;;;6.70;;
59788;SDS011;47353;51.614;5.530;2023-04-25T04:20:55;22.60;;;6.63;;
59788;SDS011;47353;51.614;5.530;2023-04-25T04:23:23;21.05;;;7.07;;
59788;SDS011;47353;51.614;5.530;2023-04-25T04:25:48;21.05;;;6.30;;
59788;SDS011;47353;51.614;5.530;2023-04-25T04:28:14;30.92;;;7.28;;
59788;SDS011;47353;51.614;5.530;2023-04-25T04:30:39;19.85;;;6.45;;
59788;SDS011;47353;51.614;5.530;2023-04-25T04:33:06;23.83;;;6.50;;
59788;SDS011;47353;51.614;5.530;2023-04-25T04:35:32;21.65;;;6.53;;
59788;SDS011;47353;51.614;5.530;2023-04-25T04:37:57;27.40;;;6.32;;
59788;SDS011;47353;51.614;5.530;2023-04-25T04:40:23;26.65;;;6.25;;
59788;SDS011;47353;51.614;5.530;2023-04-25T04:42:48;20.67;;;6.00;;
59788;SDS011;47353;51.614;5.530;2023-04-25T04:45:14;24.20;;;6.93;;
59788;SDS011;47353;51.614;5.530;2023-04-25T04:47:40;17.05;;;6.20;;
59788;SDS011;47353;51.614;5.530;2023-04-25T04:50:06;24.77;;;6.88;;
59788;SDS011;47353;51.614;5.530;2023-04-25T04:52:34;18.17;;;6.25;;
59788;SDS011;47353;51.614;5.530;2023-04-25T04:55:00;20.25;;;6.53;;
59788;SDS011;47353;51.614;5.530;2023-04-25T04:57:28;21.95;;;6.35;;
59788;SDS011;47353;51.614;5.530;2023-04-25T04:59:53;26.30;;;7.78;;
59788;SDS011;47353;51.614;5.530;2023-04-25T05:02:19;18.08;;;6.43;;
59788;SDS011;47353;51.614;5.530;2023-04-25T05:04:45;21.65;;;6.25;;
59788;SDS011;47353;51.614;5.530;2023-04-25T05:07:10;18.25;;;6.45;;
59788;SDS011;47353;51.614;5.530;2023-04-25T05:09:36;20.00;;;6.47;;
59788;SDS011;47353;51.614;5.530;2023-04-25T05:12:01;20.40;;;6.63;;
59788;SDS011;47353;51.614;5.530;2023-04-25T05:14:27;21.48;;;5.88;;
59788;SDS011;47353;51.614;5.530;2023-04-25T05:16:52;17.08;;;6.55;;
59788;SDS011;47353;51.614;5.530;2023-04-25T05:19:18;23.27;;;6.07;;
59788;SDS011;47353;51.614;5.530;2023-04-25T05:21:43;21.00;;;6.15;;
59788;SDS011;47353;51.614;5.530;2023-04-25T05:24:08;15.48;;;5.75;;
59788;SDS011;47353;51.614;5.530;2023-04-25T05:26:34;19.92;;;6.25;;
59788;SDS011;47353;51.614;5.530;2023-04-25T05:28:59;22.50;;;6.47;;
59788;SDS011;47353;51.614;5.530;2023-04-25T05:31:25;19.42;;;5.35;;
59788;SDS011;47353;51.614;5.530;2023-04-25T05:33:51;21.25;;;6.35;;
59788;SDS011;47353;51.614;5.530;2023-04-25T05:36:18;23.08;;;5.68;;
59788;SDS011;47353;51.614;5.530;2023-04-25T05:38:44;15.82;;;5.78;;
59788;SDS011;47353;51.614;5.530;2023-04-25T05:41:09;19.42;;;5.55;;
59788;SDS011;47353;51.614;5.530;2023-04-25T05:43:34;19.60;;;5.97;;
59788;SDS011;47353;51.614;5.530;2023-04-25T05:46:00;14.60;;;5.85;;
59788;SDS011;47353;51.614;5.530;2023-04-25T05:48:25;17.83;;;5.80;;
59788;SDS011;47353;51.614;5.530;2023-04-25T05:50:51;15.98;;;5.75;;
59788;SDS011;47353;51.614;5.530;2023-04-25T05:53:16;19.65;;;5.97;;
59788;SDS011;47353;51.614;5.530;2023-04-25T05:55:42;21.42;;;6.55;;
59788;SDS011;47353;51.614;5.530;2023-04-25T05:58:08;20.38;;;6.07;;
59788;SDS011;47353;51.614;5.530;2023-04-25T06:00:33;18.63;;;5.72;;
59788;SDS011;47353;51.614;5.530;2023-04-25T06:02:59;18.38;;;5.97;;
59788;SDS011;47353;51.614;5.530;2023-04-25T06:05:25;15.13;;;5.80;;
59788;SDS011;47353;51.614;5.530;2023-04-25T06:07:50;17.17;;;5.20;;
59788;SDS011;47353;51.614;5.530;2023-04-25T06:10:16;15.52;;;5.45;;
59788;SDS011;47353;51.614;5.530;2023-04-25T06:12:41;16.08;;;5.55;;
59788;SDS011;47353;51.614;5.530;2023-04-25T06:15:07;13.52;;;5.60;;
59788;SDS011;47353;51.614;5.530;2023-04-25T06:17:33;16.67;;;4.95;;
59788;SDS011;47353;51.614;5.530;2023-04-25T06:19:58;11.27;;;4.00;;
59788;SDS011;47353;51.614;5.530;2023-04-25T06:22:24;11.40;;;3.80;;
59788;SDS011;47353;51.614;5.530;2023-04-25T06:24:49;10.35;;;3.60;;
59788;SDS011;47353;51.614;5.530;2023-04-25T06:27:15;12.88;;;2.92;;
59788;SDS011;47353;51.614;5.530;2023-04-25T06:29:40;13.27;;;3.90;;
59788;SDS011;47353;51.614;5.530;2023-04-25T06:32:05;9.43;;;3.03;;
59788;SDS011;47353;51.614;5.530;2023-04-25T06:34:31;12.50;;;3.88;;
59788;SDS011;47353;51.614;5.530;2023-04-25T06:36:56;8.85;;;3.25;;
59788;SDS011;47353;51.614;5.530;2023-04-25T06:39:22;12.73;;;3.70;;
59788;SDS011;47353;51.614;5.530;2023-04-25T06:41:48;9.00;;;3.00;;
59788;SDS011;47353;51.614;5.530;2023-04-25T06:44:14;10.10;;;2.70;;
59788;SDS011;47353;51.614;5.530;2023-04-25T06:46:40;14.23;;;3.42;;
59788;SDS011;47353;51.614;5.530;2023-04-25T06:49:05;12.82;;;3.22;;
59788;SDS011;47353;51.614;5.530;2023-04-25T06:51:31;10.50;;;3.20;;
59788;SDS011;47353;51.614;5.530;2023-04-25T06:53:56;8.38;;;2.90;;
59788;SDS011;47353;51.614;5.530;2023-04-25T06:56:22;9.32;;;3.05;;
59788;SDS011;47353;51.614;5.530;2023-04-25T06:58:48;11.27;;;3.08;;
59788;SDS011;47353;51.614;5.530;2023-04-25T07:01:13;12.77;;;3.13;;
59788;SDS011;47353;51.614;5.530;2023-04-25T07:03:39;10.90;;;2.70;;
59788;SDS011;47353;51.614;5.530;2023-04-25T07:06:04;7.38;;;2.72;;
59788;SDS011;47353;51.614;5.530;2023-04-25T07:08:30;9.43;;;2.78;;
59788;SDS011;47353;51.614;5.530;2023-04-25T07:10:55;11.57;;;2.53;;
59788;SDS011;47353;51.614;5.530;2023-04-25T07:13:21;9.90;;;2.42;;
59788;SDS011;47353;51.614;5.530;2023-04-25T07:15:46;7.20;;;2.22;;
59788;SDS011;47353;51.614;5.530;2023-04-25T07:18:13;6.25;;;2.50;;
59788;SDS011;47353;51.614;5.530;2023-04-25T07:20:38;12.52;;;2.83;;
59788;SDS011;47353;51.614;5.530;2023-04-25T07:23:04;9.93;;;3.03;;
59788;SDS011;47353;51.614;5.530;2023-04-25T07:25:29;11.55;;;2.67;;
59788;SDS011;47353;51.614;5.530;2023-04-25T07:27:55;8.60;;;2.47;;
59788;SDS011;47353;51.614;5.530;2023-04-25T07:30:21;8.35;;;2.72;;
59788;SDS011;47353;51.614;5.530;2023-04-25T07:32:47;11.50;;;2.75;;
59788;SDS011;47353;51.614;5.530;2023-04-25T07:35:13;7.30;;;2.40;;
59788;SDS011;47353;51.614;5.530;2023-04-25T07:37:38;10.38;;;2.25;;
59788;SDS011;47353;51.614;5.530;2023-04-25T07:40:04;8.38;;;1.90;;
59788;SDS011;47353;51.614;5.530;2023-04-25T07:42:30;11.38;;;2.50;;
59788;SDS011;47353;51.614;5.530;2023-04-25T07:44:56;9.30;;;2.20;;
59788;SDS011;47353;51.614;5.530;2023-04-25T07:47:21;9.02;;;2.30;;
59788;SDS011;47353;51.614;5.530;2023-04-25T07:49:46;10.68;;;2.10;;
59788;SDS011;47353;51.614;5.530;2023-04-25T07:52:12;6.65;;;1.67;;
59788;SDS011;47353;51.614;5.530;2023-04-25T07:54:37;6.28;;;2.10;;
59788;SDS011;47353;51.614;5.530;2023-04-25T07:57:03;6.07;;;1.88;;
59788;SDS011;47353;51.614;5.530;2023-04-25T07:59:28;10.82;;;2.40;;
59788;SDS011;47353;51.614;5.530;2023-04-25T08:01:54;7.90;;;2.00;;
59788;SDS011;47353;51.614;5.530;2023-04-25T08:04:19;10.27;;;2.00;;
59788;SDS011;47353;51.614;5.530;2023-04-25T08:06:44;6.93;;;1.90;;
59788;SDS011;47353;51.614;5.530;2023-04-25T08:09:10;10.43;;;2.00;;
59788;SDS011;47353;51.614;5.530;2023-04-25T08:11:36;11.88;;;2.38;;
59788;SDS011;47353;51.614;5.530;2023-04-25T08:14:02;7.28;;;1.80;;
59788;SDS011;47353;51.614;5.530;2023-04-25T08:16:27;6.82;;;1.98;;
59788;SDS011;47353;51.614;5.530;2023-04-25T08:18:53;8.68;;;2.13;;
59788;SDS011;47353;51.614;5.530;2023-04-25T08:21:19;8.88;;;2.35;;
59788;SDS011;47353;51.614;5.530;2023-04-25T08:23:44;7.65;;;2.28;;
59788;SDS011;47353;51.614;5.530;2023-04-25T08:26:10;7.78;;;1.90;;
59788;SDS011;47353;51.614;5.530;2023-04-25T08:28:35;11.18;;;2.15;;
59788;SDS011;47353;51.614;5.530;2023-04-25T08:31:00;7.88;;;2.05;;
59788;SDS011;47353;51.614;5.530;2023-04-25T08:33:26;9.18;;;1.98;;
59788;SDS011;47353;51.614;5.530;2023-04-25T08:35:51;7.65;;;1.85;;
59788;SDS011;47353;51.614;5.530;2023-04-25T08:38:17;10.35;;;2.05;;
59788;SDS011;47353;51.614;5.530;2023-04-25T08:40:43;8.55;;;1.73;;
59788;SDS011;47353;51.614;5.530;2023-04-25T08:43:09;10.02;;;2.05;;
59788;SDS011;47353;51.614;5.530;2023-04-25T08:45:39;6.80;;;2.15;;
59788;SDS011;47353;51.614;5.530;2023-04-25T08:48:10;7.63;;;2.00;;
59788;SDS011;47353;51.614;5.530;2023-04-25T08:50:40;11.27;;;2.30;;
59788;SDS011;47353;51.614;5.530;2023-04-25T08:53:09;8.57;;;1.73;;
59788;SDS011;47353;51.614;5.530;2023-04-25T08:55:41;5.93;;;1.90;;
59788;SDS011;47353;51.614;5.530;2023-04-25T08:58:07;9.45;;;1.85;;
59788;SDS011;47353;51.614;5.530;2023-04-25T09:00:35;6.65;;;2.17;;
59788;SDS011;47353;51.614;5.530;2023-04-25T09:03:00;7.80;;;2.22;;
59788;SDS011;47353;51.614;5.530;2023-04-25T09:05:28;7.07;;;2.00;;
59788;SDS011;47353;51.614;5.530;2023-04-25T09:07:53;9.52;;;3.17;;
59788;SDS011;47353;51.614;5.530;2023-04-25T09:10:19;7.30;;;3.10;;
59788;SDS011;47353;51.614;5.530;2023-04-25T09:12:44;7.40;;;2.22;;
59788;SDS011;47353;51.614;5.530;2023-04-25T09:15:18;10.18;;;2.22;;
59788;SDS011;47353;51.614;5.530;2023-04-25T09:17:44;8.05;;;2.50;;
59788;SDS011;47353;51.614;5.530;2023-04-25T09:20:13;10.10;;;2.40;;
59788;SDS011;47353;51.614;5.530;2023-04-25T09:22:40;8.30;;;2.08;;
59788;SDS011;47353;51.614;5.530;2023-04-25T09:25:09;6.43;;;2.03;;
59788;SDS011;47353;51.614;5.530;2023-04-25T09:27:36;8.65;;;2.30;;
59788;SDS011;47353;51.614;5.530;2023-04-25T09:30:15;4.93;;;1.48;;
59788;SDS011;47353;51.614;5.530;2023-04-25T09:32:41;4.78;;;1.30;;
59788;SDS011;47353;51.614;5.530;2023-04-25T09:35:08;3.22;;;1.20;;
59788;SDS011;47353;51.614;5.530;2023-04-25T09:37:34;5.53;;;1.23;;
59788;SDS011;47353;51.614;5.530;2023-04-25T09:40:00;4.97;;;1.35;;
59788;SDS011;47353;51.614;5.530;2023-04-25T09:42:30;6.97;;;1.88;;
59788;SDS011;47353;51.614;5.530;2023-04-25T09:44:59;7.43;;;1.70;;
59788;SDS011;47353;51.614;5.530;2023-04-25T09:47:26;8.65;;;2.00;;
59788;SDS011;47353;51.614;5.530;2023-04-25T09:49:53;5.40;;;2.03;;
59788;SDS011;47353;51.614;5.530;2023-04-25T09:52:23;3.72;;;1.73;;
59788;SDS011;47353;51.614;5.530;2023-04-25T09:54:50;5.63;;;2.00;;
59788;SDS011;47353;51.614;5.530;2023-04-25T09:57:16;5.07;;;1.60;;
59788;SDS011;47353;51.614;5.530;2023-04-25T09:59:47;4.97;;;1.40;;
59788;SDS011;47353;51.614;5.530;2023-04-25T10:02:15;6.45;;;1.60;;
59788;SDS011;47353;51.614;5.530;2023-04-25T10:04:44;6.90;;;1.63;;
59788;SDS011;47353;51.614;5.530;2023-04-25T10:07:12;4.20;;;0.90;;
59788;SDS011;47353;51.614;5.530;2023-04-25T10:09:39;2.65;;;1.00;;
59788;SDS011;47353;51.614;5.530;2023-04-25T10:12:05;5.38;;;1.67;;
59788;SDS011;47353;51.614;5.530;2023-04-25T10:14:33;3.85;;;1.35;;
59788;SDS011;47353;51.614;5.530;2023-04-25T10:17:00;7.78;;;2.42;;
59788;SDS011;47353;51.614;5.530;2023-04-25T10:19:26;7.25;;;1.55;;
59788;SDS011;47353;51.614;5.530;2023-04-25T10:21:54;4.60;;;1.58;;
59788;SDS011;47353;51.614;5.530;2023-04-25T10:24:26;10.20;;;3.83;;
59788;SDS011;47353;51.614;5.530;2023-04-25T10:26:52;5.63;;;1.65;;
59788;SDS011;47353;51.614;5.530;2023-04-25T10:29:35;8.77;;;2.88;;
59788;SDS011;47353;51.614;5.530;2023-04-25T10:32:01;10.68;;;3.72;;
59788;SDS011;47353;51.614;5.530;2023-04-25T10:34:40;12.32;;;4.80;;
59788;SDS011;47353;51.614;5.530;2023-04-25T10:37:10;4.00;;;1.27;;
59788;SDS011;47353;51.614;5.530;2023-04-25T10:39:37;7.25;;;1.67;;
59788;SDS011;47353;51.614;5.530;2023-04-25T10:42:04;14.07;;;4.57;;
59788;SDS011;47353;51.614;5.530;2023-04-25T10:44:30;11.52;;;4.60;;
59788;SDS011;47353;51.614;5.530;2023-04-25T10:46:57;4.57;;;1.45;;
59788;SDS011;47353;51.614;5.530;2023-04-25T10:49:30;4.03;;;1.42;;
59788;SDS011;47353;51.614;5.530;2023-04-25T10:52:16;6.68;;;2.00;;
59788;SDS011;47353;51.614;5.530;2023-04-25T10:54:46;8.52;;;3.40;;
59788;SDS011;47353;51.614;5.530;2023-04-25T10:57:28;7.60;;;2.70;;
59788;SDS011;47353;51.614;5.530;2023-04-25T11:00:05;5.63;;;1.70;;
59788;SDS011;47353;51.614;5.530;2023-04-25T11:02:42;5.57;;;1.63;;
59788;SDS011;47353;51.614;5.530;2023-04-25T11:05:33;6.20;;;1.42;;
59788;SDS011;47353;51.614;5.530;2023-04-25T11:07:58;5.47;;;1.75;;
59788;SDS011;47353;51.614;5.530;2023-04-25T11:10:27;4.47;;;1.50;;
59788;SDS011;47353;51.614;5.530;2023-04-25T11:12:54;6.15;;;1.90;;
59788;SDS011;47353;51.614;5.530;2023-04-25T11:15:20;5.00;;;1.80;;
59788;SDS011;47353;51.614;5.530;2023-04-25T11:17:46;9.00;;;2.30;;
59788;SDS011;47353;51.614;5.530;2023-04-25T11:20:12;9.93;;;2.10;;
59788;SDS011;47353;51.614;5.530;2023-04-25T11:22:38;6.20;;;1.52;;
59788;SDS011;47353;51.614;5.530;2023-04-25T11:25:07;7.80;;;1.70;;
59788;SDS011;47353;51.614;5.530;2023-04-25T11:27:37;7.43;;;1.80;;
59788;SDS011;47353;51.614;5.530;2023-04-25T11:30:10;4.30;;;1.40;;
59788;SDS011;47353;51.614;5.530;2023-04-25T11:32:38;5.43;;;1.80;;
59788;SDS011;47353;51.614;5.530;2023-04-25T11:35:05;4.25;;;1.45;;
59788;SDS011;47353;51.614;5.530;2023-04-25T11:37:31;4.80;;;1.38;;
59788;SDS011;47353;51.614;5.530;2023-04-25T11:39:56;4.47;;;1.35;;
59788;SDS011;47353;51.614;5.530;2023-04-25T11:42:22;5.90;;;1.90;;
59788;SDS011;47353;51.614;5.530;2023-04-25T11:44:47;6.55;;;1.70;;
59788;SDS011;47353;51.614;5.530;2023-04-25T11:47:13;4.60;;;1.30;;
59788;SDS011;47353;51.614;5.530;2023-04-25T11:49:38;6.43;;;2.20;;
59788;SDS011;47353;51.614;5.530;2023-04-25T11:52:05;5.82;;;1.50;;
59788;SDS011;47353;51.614;5.530;2023-04-25T11:54:32;3.65;;;0.95;;
59788;SDS011;47353;51.614;5.530;2023-04-25T11:57:00;3.35;;;0.93;;
59788;SDS011;47353;51.614;5.530;2023-04-25T11:59:26;6.53;;;1.35;;
59788;SDS011;47353;51.614;5.530;2023-04-25T12:01:51;6.95;;;2.40;;
59788;SDS011;47353;51.614;5.530;2023-04-25T12:06:45;3.67;;;1.40;;
59788;SDS011;47353;51.614;5.530;2023-04-25T12:09:13;3.72;;;1.73;;
59788;SDS011;47353;51.614;5.530;2023-04-25T12:11:47;4.72;;;1.10;;
59788;SDS011;47353;51.614;5.530;2023-04-25T12:16:49;2.90;;;1.00;;
59788;SDS011;47353;51.614;5.530;2023-04-25T12:19:16;3.25;;;0.98;;
59788;SDS011;47353;51.614;5.530;2023-04-25T12:21:43;4.10;;;1.10;;
59788;SDS011;47353;51.614;5.530;2023-04-25T12:24:12;3.63;;;1.10;;
59788;SDS011;47353;51.614;5.530;2023-04-25T12:29:38;3.15;;;0.80;;
59788;SDS011;47353;51.614;5.530;2023-04-25T12:32:03;3.97;;;1.05;;
59788;SDS011;47353;51.614;5.530;2023-04-25T12:34:29;2.33;;;0.80;;
59788;SDS011;47353;51.614;5.530;2023-04-25T12:36:56;3.20;;;0.90;;
59788;SDS011;47353;51.614;5.530;2023-04-25T12:39:23;4.10;;;1.30;;
59788;SDS011;47353;51.614;5.530;2023-04-25T12:41:50;5.80;;;1.48;;
59788;SDS011;47353;51.614;5.530;2023-04-25T12:44:18;5.75;;;1.20;;
59788;SDS011;47353;51.614;5.530;2023-04-25T12:46:44;6.70;;;1.40;;
59788;SDS011;47353;51.614;5.530;2023-04-25T12:49:10;4.57;;;1.27;;
59788;SDS011;47353;51.614;5.530;2023-04-25T12:51:35;4.72;;;1.60;;
59788;SDS011;47353;51.614;5.530;2023-04-25T12:54:01;7.13;;;1.85;;
59788;SDS011;47353;51.614;5.530;2023-04-25T12:56:29;4.88;;;1.63;;
59788;SDS011;47353;51.614;5.530;2023-04-25T12:58:55;5.43;;;1.45;;
59788;SDS011;47353;51.614;5.530;2023-04-25T13:01:21;5.63;;;1.65;;
59788;SDS011;47353;51.614;5.530;2023-04-25T13:03:47;7.50;;;1.85;;
59788;SDS011;47353;51.614;5.530;2023-04-25T13:06:13;5.13;;;1.60;;
59788;SDS011;47353;51.614;5.530;2023-04-25T13:08:39;7.75;;;1.50;;
59788;SDS011;47353;51.614;5.530;2023-04-25T13:11:06;4.72;;;1.60;;
59788;SDS011;47353;51.614;5.530;2023-04-25T13:13:31;5.13;;;1.33;;
59788;SDS011;47353;51.614;5.530;2023-04-25T13:15:57;4.10;;;1.17;;
59788;SDS011;47353;51.614;5.530;2023-04-25T13:18:23;5.32;;;1.10;;
59788;SDS011;47353;51.614;5.530;2023-04-25T13:20:51;8.35;;;1.83;;
59788;SDS011;47353;51.614;5.530;2023-04-25T13:23:18;6.05;;;1.52;;
59788;SDS011;47353;51.614;5.530;2023-04-25T13:25:44;5.22;;;1.55;;
59788;SDS011;47353;51.614;5.530;2023-04-25T13:28:10;8.23;;;1.73;;
59788;SDS011;47353;51.614;5.530;2023-04-25T13:30:35;11.00;;;2.60;;
59788;SDS011;47353;51.614;5.530;2023-04-25T13:33:01;5.72;;;1.50;;
59788;SDS011;47353;51.614;5.530;2023-04-25T13:35:28;5.82;;;1.50;;
59788;SDS011;47353;51.614;5.530;2023-04-25T13:37:55;5.18;;;1.38;;
59788;SDS011;47353;51.614;5.530;2023-04-25T13:40:21;5.95;;;1.40;;
59788;SDS011;47353;51.614;5.530;2023-04-25T13:42:46;7.03;;;1.38;;
59788;SDS011;47353;51.614;5.530;2023-04-25T13:45:11;5.60;;;1.67;;
59788;SDS011;47353;51.614;5.530;2023-04-25T13:47:37;7.50;;;2.40;;
59788;SDS011;47353;51.614;5.530;2023-04-25T13:50:03;5.35;;;1.50;;
59788;SDS011;47353;51.614;5.530;2023-04-25T13:52:30;5.25;;;1.90;;
59788;SDS011;47353;51.614;5.530;2023-04-25T13:54:56;4.28;;;1.73;;
59788;SDS011;47353;51.614;5.530;2023-04-25T13:57:22;3.60;;;1.40;;
59788;SDS011;47353;51.614;5.530;2023-04-25T13:59:48;6.63;;;1.60;;
59788;SDS011;47353;51.614;5.530;2023-04-25T14:02:13;4.85;;;1.60;;
59788;SDS011;47353;51.614;5.530;2023-04-25T14:04:39;6.18;;;1.40;;
59788;SDS011;47353;51.614;5.530;2023-04-25T14:07:05;6.90;;;1.60;;
59788;SDS011;47353;51.614;5.530;2023-04-25T14:09:31;3.97;;;1.35;;
59788;SDS011;47353;51.614;5.530;2023-04-25T14:11:56;5.28;;;1.45;;
59788;SDS011;47353;51.614;5.530;2023-04-25T14:14:22;4.10;;;1.30;;
59788;SDS011;47353;51.614;5.530;2023-04-25T14:16:48;12.02;;;1.77;;
59788;SDS011;47353;51.614;5.530;2023-04-25T14:19:14;4.18;;;1.10;;
59788;SDS011;47353;51.614;5.530;2023-04-25T14:21:40;5.80;;;1.27;;
59788;SDS011;47353;51.614;5.530;2023-04-25T14:24:06;5.20;;;1.50;;
59788;SDS011;47353;51.614;5.530;2023-04-25T14:26:33;4.68;;;1.27;;
59788;SDS011;47353;51.614;5.530;2023-04-25T14:28:58;4.72;;;1.38;;
59788;SDS011;47353;51.614;5.530;2023-04-25T14:31:24;5.18;;;1.50;;
59788;SDS011;47353;51.614;5.530;2023-04-25T14:33:49;4.30;;;1.50;;
59788;SDS011;47353;51.614;5.530;2023-04-25T14:36:15;6.80;;;1.90;;
59788;SDS011;47353;51.614;5.530;2023-04-25T14:38:40;6.22;;;1.75;;
59788;SDS011;47353;51.614;5.530;2023-04-25T14:41:06;4.93;;;1.52;;
59788;SDS011;47353;51.614;5.530;2023-04-25T14:43:31;4.03;;;1.30;;